YLMB weather

Lambrook Airport
New South Wales, Australia

Public forecast

Using degrees Celsius for public forecast. Weather courtesy of forecast.io.

METAR (pilot weather report)

Closest report is Coonabarabran Airport, 36.9 nm (68.4 km) WSW. Retrieved 2019/04/24 05:00 UTC (55 minutes ago):

YCBB 240500Z AUTO 20007KT 9999 // NCD 22/11 Q1022

TAF (pilot weather forecast)

Forecast is more than 12 hours old.

Closest forecast is Tamworth Airport, 47.0 nm (87.0 km) E. Retrieved 2019/04/23 00:36 UTC (1 day ago):

TAF YSTW 232304Z 2400/2418 15006KT CAVOK FM241100 10006KT CAVOK